Hovedside
METAR-TAF:

METAR-TAF

Lufthavner :

Tôlanaro, Madagaskar

breddegrad: 25-02S, lengdegrad: 046-57E, høyde over havet: 8 m

Gjeldene værobservasjon

Denne rapporten ble laget for 1 time og 8 minutter siden, klokken 03:00 UTC
Vind 16 kt fra Øst
Temperatur 24°C
Luftfuktighet 74%
Trykk 1009 hPa
Sikt 10 km eller mer
Få skyer i en høyde av 2000 ft

METAR: FMSD 290300Z 08016KT 9999 FEW020 24/19 Q1009

Tid: 07:08 (04:08 UTC)

Varsel

Denne rapporten ble laget for 5 timer og 8 minutter siden, klokken 23:00 UTC
Varsel gyldig fra 29. klokken 00 UTC til 29. klokken 24 UTC
Vind 15 kt fra Øst
Sikt 10 km eller mer
Få skyer i en høyde av 1600 ft

TAF: FMSD 282300Z 2900/2924 08015KT 9999 FEW016

Værobservasjoner og værvarsel for over 4000 flyplasser (METAR- og TAF-rapporter).

Tilgjengelige stasjoner er representert av de røde og gule prikkene på kartet.

Hold musepekeren over prikken for å se navnet på stasjonen.

Klikk så for å se værobservasjoner og -varsler.

For å forandre kartet kan du klikke på den grønne knappen med svart kryss for å zoome inn, på den grønne knappen med strek for å zoome ut, eller på de grønne pilene for å se tilstøtende kart.


METAR-TAF: